Time,TemperatureF,DewpointF,PressureIn,WindDirection,WindDirectionDegrees,WindSpeedMPH,WindSpeedGustMPH,Humidity,HourlyPrecipIn,Conditions,Clouds,dailyrainin,SoftwareType,DateUTC
2013-01-24 00:05:00,2.5,-0.2,30.12,North,0,2.2,-999.0,88,-99.99,,,0.00,Acu-Link.com,2013-01-24 05:05:00,
2013-01-24 00:21:00,2.1,-0.6,30.11,North,0,2.2,-999.0,88,-99.99,,,0.00,Acu-Link.com,2013-01-24 05:21:00,
2013-01-24 00:36:00,1.9,-0.8,30.11,North,0,0.0,-999.0,88,-99.99,,,0.00,Acu-Link.com,2013-01-24 05:36:00,
2013-01-24 00:51:00,1.8,-1.0,30.12,North,0,0.0,-999.0,88,-99.99,,,0.00,Acu-Link.com,2013-01-24 05:51:00,
2013-01-24 01:07:00,1.2,-1.5,30.12,North,0,0.0,-999.0,88,-99.99,,,0.00,Acu-Link.com,2013-01-24 06:07:00,
2013-01-24 01:22:00,1.2,-1.3,30.11,North,0,1.6,-999.0,89,-99.99,,,0.00,Acu-Link.com,2013-01-24 06:22:00,
2013-01-24 01:37:00,1.2,-1.0,30.11,North,0,0.0,-999.0,90,-99.99,,,0.00,Acu-Link.com,2013-01-24 06:37:00,
2013-01-24 01:53:00,0.7,-2.0,30.12,North,0,0.0,-999.0,88,-99.99,,,0.00,Acu-Link.com,2013-01-24 06:53:00,
2013-01-24 02:08:00,0.3,-2.1,30.11,North,0,0.0,-999.0,89,-99.99,,,0.00,Acu-Link.com,2013-01-24 07:08:00,
2013-01-24 02:23:00,0.7,-1.5,30.12,North,0,0.0,-999.0,90,-99.99,,,0.00,Acu-Link.com,2013-01-24 07:23:00,
2013-01-24 02:38:00,0.7,-1.5,30.11,North,0,1.1,-999.0,90,-99.99,,,0.00,Acu-Link.com,2013-01-24 07:38:00,
2013-01-24 02:54:00,0.7,-1.5,30.10,North,0,1.6,-999.0,90,-99.99,,,0.00,Acu-Link.com,2013-01-24 07:54:00,
2013-01-24 03:09:00,0.9,-1.1,30.10,North,0,1.1,-999.0,91,-99.99,,,0.00,Acu-Link.com,2013-01-24 08:09:00,
2013-01-24 03:24:00,0.1,-2.1,30.10,North,0,0.0,-999.0,90,-99.99,,,0.00,Acu-Link.com,2013-01-24 08:24:00,
2013-01-24 03:40:00,0.0,-2.5,30.11,North,0,0.0,-999.0,89,-99.99,,,0.00,Acu-Link.com,2013-01-24 08:40:00,
2013-01-24 03:55:00,-0.2,-2.7,30.11,North,0,1.6,-999.0,89,-99.99,,,0.00,Acu-Link.com,2013-01-24 08:55:00,
2013-01-24 04:16:00,0.1,-2.1,30.11,North,0,1.6,-999.0,90,-99.99,,,0.00,Acu-Link.com,2013-01-24 09:16:00,
2013-01-24 04:31:00,0.0,-2.5,30.11,North,0,0.0,-999.0,89,-99.99,,,0.00,Acu-Link.com,2013-01-24 09:31:00,
2013-01-24 04:46:00,0.0,-2.5,30.11,North,0,1.6,-999.0,89,-99.99,,,0.00,Acu-Link.com,2013-01-24 09:46:00,
2013-01-24 05:01:00,0.0,-2.5,30.12,North,0,0.0,-999.0,89,-99.99,,,0.00,Acu-Link.com,2013-01-24 10:01:00,
2013-01-24 05:17:00,0.1,-2.3,30.13,North,0,0.0,-999.0,89,-99.99,,,0.00,Acu-Link.com,2013-01-24 10:17:00,
2013-01-24 05:32:00,0.0,-2.5,30.13,North,0,0.0,-999.0,89,-99.99,,,0.00,Acu-Link.com,2013-01-24 10:32:00,
2013-01-24 05:47:00,-0.2,-2.9,30.13,North,0,0.0,-999.0,88,-99.99,,,0.00,Acu-Link.com,2013-01-24 10:47:00,
2013-01-24 06:02:00,-0.4,-3.1,30.13,North,0,0.0,-999.0,88,-99.99,,,0.00,Acu-Link.com,2013-01-24 11:02:00,
2013-01-24 06:18:00,-0.2,-2.7,30.14,North,0,0.0,-999.0,89,-99.99,,,0.00,Acu-Link.com,2013-01-24 11:18:00,
2013-01-24 06:33:00,0.0,-2.5,30.15,North,0,0.0,-999.0,89,-99.99,,,0.00,Acu-Link.com,2013-01-24 11:33:00,
2013-01-24 06:48:00,-0.2,-2.7,30.15,North,0,0.0,-999.0,89,-99.99,,,0.00,Acu-Link.com,2013-01-24 11:48:00,
2013-01-24 07:04:00,-0.2,-2.9,30.16,North,0,0.0,-999.0,88,-99.99,,,0.00,Acu-Link.com,2013-01-24 12:04:00,
2013-01-24 07:19:00,-0.2,-2.7,30.16,North,0,2.2,-999.0,89,-99.99,,,0.00,Acu-Link.com,2013-01-24 12:19:00,
2013-01-24 07:34:00,0.1,-2.3,30.16,North,0,2.2,-999.0,89,-99.99,,,0.00,Acu-Link.com,2013-01-24 12:34:00,
2013-01-24 07:50:00,0.9,-1.8,30.16,North,0,1.6,-999.0,88,-99.99,,,0.00,Acu-Link.com,2013-01-24 12:50:00,
2013-01-24 08:05:00,1.9,-0.8,30.17,North,0,2.2,-999.0,88,-99.99,,,0.00,Acu-Link.com,2013-01-24 13:05:00,
2013-01-24 08:20:00,3.2,-0.3,30.18,North,0,0.0,-999.0,85,-99.99,,,0.00,Acu-Link.com,2013-01-24 13:20:00,
2013-01-24 08:35:00,4.5,0.2,30.18,North,0,2.7,-999.0,82,-99.99,,,0.00,Acu-Link.com,2013-01-24 13:35:00,
2013-01-24 08:51:00,5.7,0.1,30.18,North,0,2.2,-999.0,77,-99.99,,,0.00,Acu-Link.com,2013-01-24 13:51:00,
2013-01-24 09:06:00,5.9,-0.6,30.18,North,0,2.7,-999.0,74,-99.99,,,0.00,Acu-Link.com,2013-01-24 14:06:00,
2013-01-24 09:21:00,7.5,1.8,30.19,North,0,1.1,-999.0,77,-99.99,,,0.00,Acu-Link.com,2013-01-24 14:21:00,
2013-01-24 09:37:00,8.2,1.7,30.18,North,0,2.7,-999.0,74,-99.99,,,0.00,Acu-Link.com,2013-01-24 14:37:00,
2013-01-24 09:52:00,9.5,2.9,30.19,North,0,4.3,-999.0,74,-99.99,,,0.00,Acu-Link.com,2013-01-24 14:52:00,
2013-01-24 10:07:00,12.7,4.5,30.19,North,0,1.1,-999.0,69,-99.99,,,0.00,Acu-Link.com,2013-01-24 15:07:00,
2013-01-24 10:23:00,13.5,3.2,30.19,North,0,2.2,-999.0,63,-99.99,,,0.00,Acu-Link.com,2013-01-24 15:23:00,
2013-01-24 10:38:00,15.1,4.4,30.20,North,0,2.7,-999.0,62,-99.99,,,0.00,Acu-Link.com,2013-01-24 15:38:00,
2013-01-24 10:53:00,19.0,5.6,30.18,West,270,5.1,-999.0,55,-99.99,,,0.00,Acu-Link.com,2013-01-24 15:53:00,
2013-01-24 11:08:00,18.9,3.3,30.18,NW,315,4.3,-999.0,50,-99.99,,,0.00,Acu-Link.com,2013-01-24 16:08:00,
2013-01-24 11:24:00,19.9,3.9,30.19,NW,315,6.3,-999.0,49,-99.99,,,0.00,Acu-Link.com,2013-01-24 16:24:00,
2013-01-24 11:39:00,21.4,5.2,30.18,WSW,247,5.1,-999.0,49,-99.99,,,0.00,Acu-Link.com,2013-01-24 16:39:00,
2013-01-24 11:54:00,20.8,4.7,30.18,North,0,10.3,-999.0,49,-99.99,,,0.00,Acu-Link.com,2013-01-24 16:54:00,
2013-01-24 12:10:00,20.3,2.9,30.18,NE,45,8.3,-999.0,46,-99.99,,,0.00,Acu-Link.com,2013-01-24 17:10:00,
2013-01-24 12:25:00,21.6,4.0,30.17,West,270,11.0,-999.0,46,-99.99,,,0.00,Acu-Link.com,2013-01-24 17:25:00,
2013-01-24 12:40:00,20.3,2.4,30.18,West,270,6.3,-999.0,45,-99.99,,,0.00,Acu-Link.com,2013-01-24 17:40:00,
2013-01-24 12:56:00,22.5,4.4,30.17,WNW,292,6.7,-999.0,45,-99.99,,,0.00,Acu-Link.com,2013-01-24 17:56:00,
2013-01-24 13:11:00,21.9,3.4,30.18,NW,315,3.1,-999.0,44,-99.99,,,0.00,Acu-Link.com,2013-01-24 18:11:00,
2013-01-24 13:26:00,19.9,2.5,30.19,SW,225,5.8,-999.0,46,-99.99,,,0.00,Acu-Link.com,2013-01-24 18:26:00,
2013-01-24 13:41:00,19.8,1.9,30.19,NNW,337,11.9,-999.0,45,-99.99,,,0.00,Acu-Link.com,2013-01-24 18:41:00,
2013-01-24 13:57:00,20.1,1.7,30.19,NE,45,5.8,-999.0,44,-99.99,,,0.00,Acu-Link.com,2013-01-24 18:57:00,
2013-01-24 14:12:00,20.8,1.9,30.19,North,0,7.8,-999.0,43,-99.99,,,0.00,Acu-Link.com,2013-01-24 19:12:00,
2013-01-24 14:27:00,23.4,3.2,30.20,West,270,6.7,-999.0,41,-99.99,,,0.00,Acu-Link.com,2013-01-24 19:27:00,
2013-01-24 14:43:00,21.2,1.2,30.20,SW,225,5.1,-999.0,41,-99.99,,,0.00,Acu-Link.com,2013-01-24 19:43:00,
2013-01-24 14:58:00,20.1,0.8,30.20,NW,315,4.3,-999.0,42,-99.99,,,0.00,Acu-Link.com,2013-01-24 19:58:00,
2013-01-24 15:13:00,19.0,-0.2,30.22,WSW,247,4.7,-999.0,42,-99.99,,,0.00,Acu-Link.com,2013-01-24 20:13:00,
2013-01-24 15:28:00,18.7,-1.1,30.22,WSW,247,7.8,-999.0,41,-99.99,,,0.00,Acu-Link.com,2013-01-24 20:28:00,
2013-01-24 15:44:00,18.5,-1.2,30.22,NW,315,5.1,-999.0,41,-99.99,,,0.00,Acu-Link.com,2013-01-24 20:44:00,
2013-01-24 15:59:00,18.7,-0.6,30.22,North,0,5.1,-999.0,42,-99.99,,,0.00,Acu-Link.com,2013-01-24 20:59:00,
2013-01-24 16:14:00,17.8,-0.9,30.23,West,270,6.3,-999.0,43,-99.99,,,0.00,Acu-Link.com,2013-01-24 21:14:00,
2013-01-24 16:29:00,17.2,-0.4,30.23,West,270,5.8,-999.0,45,-99.99,,,0.00,Acu-Link.com,2013-01-24 21:29:00,
2013-01-24 16:44:00,16.2,-0.9,30.24,WNW,292,4.3,-999.0,46,-99.99,,,0.00,Acu-Link.com,2013-01-24 21:44:00,
2013-01-24 17:00:00,15.4,-1.1,30.25,WSW,247,5.1,-999.0,47,-99.99,,,0.00,Acu-Link.com,2013-01-24 22:00:00,
2013-01-24 17:15:00,15.3,-1.3,30.25,WSW,247,7.4,-999.0,47,-99.99,,,0.00,Acu-Link.com,2013-01-24 22:15:00,
2013-01-24 17:30:00,14.7,-0.9,30.27,WSW,247,3.8,-999.0,49,-99.99,,,0.00,Acu-Link.com,2013-01-24 22:30:00,
2013-01-24 17:46:00,14.4,-1.3,30.27,WSW,247,4.3,-999.0,49,-99.99,,,0.00,Acu-Link.com,2013-01-24 22:46:00,
2013-01-24 18:01:00,14.2,-1.4,30.28,SW,225,7.8,-999.0,49,-99.99,,,0.00,Acu-Link.com,2013-01-24 23:01:00,
2013-01-24 18:16:00,14.2,-1.4,30.28,West,270,8.3,-999.0,49,-99.99,,,0.00,Acu-Link.com,2013-01-24 23:16:00,
2013-01-24 18:32:00,13.8,-1.8,30.29,West,270,4.7,-999.0,49,-99.99,,,0.00,Acu-Link.com,2013-01-24 23:32:00,
2013-01-24 18:47:00,13.5,-1.3,30.29,WSW,247,5.1,-999.0,51,-99.99,,,0.00,Acu-Link.com,2013-01-24 23:47:00,
2013-01-24 19:06:00,13.3,-1.0,30.31,North,0,6.7,-999.0,52,-99.99,,,0.00,Acu-Link.com,2013-01-25 00:06:00,
2013-01-24 19:21:00,13.1,-1.2,30.30,WSW,247,4.7,-999.0,52,-99.99,,,0.00,Acu-Link.com,2013-01-25 00:21:00,
2013-01-24 19:37:00,12.9,-0.9,30.31,West,270,4.7,-999.0,53,-99.99,,,0.00,Acu-Link.com,2013-01-25 00:37:00,
2013-01-24 19:52:00,12.7,-0.7,30.31,WSW,247,4.7,-999.0,54,-99.99,,,0.00,Acu-Link.com,2013-01-25 00:52:00,
2013-01-24 20:07:00,12.2,-0.5,30.31,WSW,247,3.1,-999.0,56,-99.99,,,0.00,Acu-Link.com,2013-01-25 01:07:00,
2013-01-24 20:22:00,11.7,-0.2,30.30,West,270,1.6,-999.0,58,-99.99,,,0.00,Acu-Link.com,2013-01-25 01:22:00,
2013-01-24 20:37:00,11.3,-0.2,30.31,WSW,247,2.7,-999.0,59,-99.99,,,0.00,Acu-Link.com,2013-01-25 01:37:00,
2013-01-24 20:53:00,10.8,0.7,30.31,WSW,247,1.6,-999.0,63,-99.99,,,0.00,Acu-Link.com,2013-01-25 01:53:00,
2013-01-24 21:08:00,9.9,0.8,30.31,WSW,247,0.0,-999.0,66,-99.99,,,0.00,Acu-Link.com,2013-01-25 02:08:00,
2013-01-24 21:23:00,9.3,1.2,30.31,WSW,247,0.0,-999.0,69,-99.99,,,0.00,Acu-Link.com,2013-01-25 02:23:00,
2013-01-24 21:38:00,8.4,1.3,30.31,ESE,112,2.7,-999.0,72,-99.99,,,0.00,Acu-Link.com,2013-01-25 02:38:00,
2013-01-24 21:54:00,11.5,1.4,30.31,ENE,67,2.2,-999.0,63,-99.99,,,0.00,Acu-Link.com,2013-01-25 02:54:00,
2013-01-24 22:09:00,10.8,0.7,30.31,ENE,67,2.2,-999.0,63,-99.99,,,0.00,Acu-Link.com,2013-01-25 03:09:00,
2013-01-24 22:24:00,9.3,0.6,30.31,ENE,67,1.6,-999.0,67,-99.99,,,0.00,Acu-Link.com,2013-01-25 03:24:00,
2013-01-24 22:40:00,8.1,0.6,30.32,ENE,67,0.0,-999.0,71,-99.99,,,0.00,Acu-Link.com,2013-01-25 03:40:00,
2013-01-24 22:55:00,7.5,0.1,30.32,ENE,67,1.6,-999.0,71,-99.99,,,0.00,Acu-Link.com,2013-01-25 03:55:00,
2013-01-24 23:10:00,6.8,0.0,30.31,ENE,67,0.0,-999.0,73,-99.99,,,0.00,Acu-Link.com,2013-01-25 04:10:00,
2013-01-24 23:25:00,6.4,0.2,30.32,ENE,67,0.0,-999.0,75,-99.99,,,0.00,Acu-Link.com,2013-01-25 04:25:00,
2013-01-24 23:41:00,5.5,0.2,30.32,ENE,67,1.6,-999.0,78,-99.99,,,0.00,Acu-Link.com,2013-01-25 04:41:00,
2013-01-24 23:56:00,5.4,0.6,30.32,ENE,67,0.0,-999.0,80,-99.99,,,0.00,Acu-Link.com,2013-01-25 04:56:00,